sensor_id;sensor_type;location;lat;lon;timestamp;P1;durP1;ratioP1;P2;durP2;ratioP2
9836;SDS011;4957;51.412;6.724;2023-04-21T00:00:45;25.97;;;17.80;;
9836;SDS011;4957;51.412;6.724;2023-04-21T00:03:11;32.97;;;19.80;;
9836;SDS011;4957;51.412;6.724;2023-04-21T00:05:36;30.53;;;18.90;;
9836;SDS011;4957;51.412;6.724;2023-04-21T00:08:06;38.37;;;20.57;;
9836;SDS011;4957;51.412;6.724;2023-04-21T00:10:32;35.57;;;18.50;;
9836;SDS011;4957;51.412;6.724;2023-04-21T00:12:58;36.90;;;19.47;;
9836;SDS011;4957;51.412;6.724;2023-04-21T00:15:23;37.50;;;20.27;;
9836;SDS011;4957;51.412;6.724;2023-04-21T00:17:49;35.50;;;20.17;;
9836;SDS011;4957;51.412;6.724;2023-04-21T00:20:15;33.60;;;19.40;;
9836;SDS011;4957;51.412;6.724;2023-04-21T00:22:40;27.73;;;18.30;;
9836;SDS011;4957;51.412;6.724;2023-04-21T00:25:06;36.57;;;18.40;;
9836;SDS011;4957;51.412;6.724;2023-04-21T00:27:32;27.13;;;16.47;;
9836;SDS011;4957;51.412;6.724;2023-04-21T00:29:58;29.87;;;17.40;;
9836;SDS011;4957;51.412;6.724;2023-04-21T00:32:24;30.70;;;17.80;;
9836;SDS011;4957;51.412;6.724;2023-04-21T00:34:49;29.97;;;18.13;;
9836;SDS011;4957;51.412;6.724;2023-04-21T00:37:15;26.73;;;16.83;;
9836;SDS011;4957;51.412;6.724;2023-04-21T00:39:41;27.87;;;18.10;;
9836;SDS011;4957;51.412;6.724;2023-04-21T00:42:06;26.87;;;17.97;;
9836;SDS011;4957;51.412;6.724;2023-04-21T00:44:32;28.33;;;18.23;;
9836;SDS011;4957;51.412;6.724;2023-04-21T00:46:58;31.07;;;17.93;;
9836;SDS011;4957;51.412;6.724;2023-04-21T00:49:23;26.93;;;17.90;;
9836;SDS011;4957;51.412;6.724;2023-04-21T00:51:49;31.03;;;19.67;;
9836;SDS011;4957;51.412;6.724;2023-04-21T00:54:16;26.80;;;17.17;;
9836;SDS011;4957;51.412;6.724;2023-04-21T00:56:43;31.80;;;20.07;;
9836;SDS011;4957;51.412;6.724;2023-04-21T00:59:09;33.90;;;20.40;;
9836;SDS011;4957;51.412;6.724;2023-04-21T01:01:35;28.77;;;18.07;;
9836;SDS011;4957;51.412;6.724;2023-04-21T01:04:01;35.40;;;21.03;;
9836;SDS011;4957;51.412;6.724;2023-04-21T01:06:29;31.63;;;20.40;;
9836;SDS011;4957;51.412;6.724;2023-04-21T01:08:58;31.13;;;19.40;;
9836;SDS011;4957;51.412;6.724;2023-04-21T01:11:25;35.13;;;21.03;;
9836;SDS011;4957;51.412;6.724;2023-04-21T01:13:51;30.93;;;18.93;;
9836;SDS011;4957;51.412;6.724;2023-04-21T01:16:18;30.87;;;20.17;;
9836;SDS011;4957;51.412;6.724;2023-04-21T01:18:45;30.47;;;18.67;;
9836;SDS011;4957;51.412;6.724;2023-04-21T01:21:12;35.87;;;20.30;;
9836;SDS011;4957;51.412;6.724;2023-04-21T01:23:38;32.73;;;19.47;;
9836;SDS011;4957;51.412;6.724;2023-04-21T01:26:04;31.90;;;19.77;;
9836;SDS011;4957;51.412;6.724;2023-04-21T01:28:30;32.13;;;18.17;;
9836;SDS011;4957;51.412;6.724;2023-04-21T01:30:56;29.70;;;17.77;;
9836;SDS011;4957;51.412;6.724;2023-04-21T01:33:21;0.20;;;0.20;;
9836;SDS011;4957;51.412;6.724;2023-04-21T01:35:48;0.10;;;0.10;;
9836;SDS011;4957;51.412;6.724;2023-04-21T01:38:14;0.00;;;0.00;;
9836;SDS011;4957;51.412;6.724;2023-04-21T01:40:43;0.00;;;0.00;;
9836;SDS011;4957;51.412;6.724;2023-04-21T01:43:11;0.10;;;0.10;;
9836;SDS011;4957;51.412;6.724;2023-04-21T01:45:40;0.00;;;0.00;;
9836;SDS011;4957;51.412;6.724;2023-04-21T01:48:05;0.00;;;0.00;;
9836;SDS011;4957;51.412;6.724;2023-04-21T01:50:31;0.00;;;0.00;;
9836;SDS011;4957;51.412;6.724;2023-04-21T01:52:57;0.00;;;0.00;;
9836;SDS011;4957;51.412;6.724;2023-04-21T01:55:22;0.00;;;0.00;;
9836;SDS011;4957;51.412;6.724;2023-04-21T01:57:48;0.10;;;0.10;;
9836;SDS011;4957;51.412;6.724;2023-04-21T02:00:14;0.00;;;0.00;;
9836;SDS011;4957;51.412;6.724;2023-04-21T02:02:40;0.00;;;0.00;;
9836;SDS011;4957;51.412;6.724;2023-04-21T02:05:06;0.00;;;0.00;;
9836;SDS011;4957;51.412;6.724;2023-04-21T02:07:32;0.00;;;0.00;;
9836;SDS011;4957;51.412;6.724;2023-04-21T02:09:57;0.00;;;0.00;;
9836;SDS011;4957;51.412;6.724;2023-04-21T02:12:23;0.03;;;0.03;;
9836;SDS011;4957;51.412;6.724;2023-04-21T02:14:49;0.00;;;0.00;;
9836;SDS011;4957;51.412;6.724;2023-04-21T02:17:15;0.00;;;0.00;;
9836;SDS011;4957;51.412;6.724;2023-04-21T02:19:41;0.00;;;0.00;;
9836;SDS011;4957;51.412;6.724;2023-04-21T02:22:07;0.33;;;0.33;;
9836;SDS011;4957;51.412;6.724;2023-04-21T02:24:34;0.00;;;0.00;;
9836;SDS011;4957;51.412;6.724;2023-04-21T02:27:00;0.00;;;0.00;;
9836;SDS011;4957;51.412;6.724;2023-04-21T02:29:26;0.00;;;0.00;;
9836;SDS011;4957;51.412;6.724;2023-04-21T02:31:52;0.00;;;0.00;;
9836;SDS011;4957;51.412;6.724;2023-04-21T02:34:18;0.00;;;0.00;;
9836;SDS011;4957;51.412;6.724;2023-04-21T02:36:44;2.33;;;1.13;;
9836;SDS011;4957;51.412;6.724;2023-04-21T02:39:10;0.93;;;0.60;;
9836;SDS011;4957;51.412;6.724;2023-04-21T02:41:36;0.00;;;0.00;;
9836;SDS011;4957;51.412;6.724;2023-04-21T02:44:03;0.00;;;0.00;;
9836;SDS011;4957;51.412;6.724;2023-04-21T02:46:29;0.00;;;0.00;;
9836;SDS011;4957;51.412;6.724;2023-04-21T02:48:55;0.00;;;0.00;;
9836;SDS011;4957;51.412;6.724;2023-04-21T02:51:21;0.00;;;0.00;;
9836;SDS011;4957;51.412;6.724;2023-04-21T02:53:46;0.10;;;0.10;;
9836;SDS011;4957;51.412;6.724;2023-04-21T02:56:12;0.00;;;0.00;;
9836;SDS011;4957;51.412;6.724;2023-04-21T02:58:38;0.10;;;0.10;;
9836;SDS011;4957;51.412;6.724;2023-04-21T03:01:04;0.00;;;0.00;;
9836;SDS011;4957;51.412;6.724;2023-04-21T03:03:30;0.00;;;0.00;;
9836;SDS011;4957;51.412;6.724;2023-04-21T03:06:00;0.10;;;0.10;;
9836;SDS011;4957;51.412;6.724;2023-04-21T03:08:27;0.03;;;0.03;;
9836;SDS011;4957;51.412;6.724;2023-04-21T03:10:55;0.00;;;0.00;;
9836;SDS011;4957;51.412;6.724;2023-04-21T03:13:21;0.00;;;0.00;;
9836;SDS011;4957;51.412;6.724;2023-04-21T03:15:47;0.00;;;0.00;;
9836;SDS011;4957;51.412;6.724;2023-04-21T03:18:13;0.00;;;0.00;;
9836;SDS011;4957;51.412;6.724;2023-04-21T03:20:38;0.50;;;0.47;;
9836;SDS011;4957;51.412;6.724;2023-04-21T03:23:04;0.67;;;0.67;;
9836;SDS011;4957;51.412;6.724;2023-04-21T03:25:30;0.10;;;0.10;;
9836;SDS011;4957;51.412;6.724;2023-04-21T03:27:56;0.00;;;0.00;;
9836;SDS011;4957;51.412;6.724;2023-04-21T03:30:22;0.10;;;0.10;;
9836;SDS011;4957;51.412;6.724;2023-04-21T03:32:50;0.10;;;0.10;;
9836;SDS011;4957;51.412;6.724;2023-04-21T03:35:16;0.03;;;0.03;;
9836;SDS011;4957;51.412;6.724;2023-04-21T03:37:43;0.00;;;0.00;;
9836;SDS011;4957;51.412;6.724;2023-04-21T03:40:08;0.10;;;0.10;;
9836;SDS011;4957;51.412;6.724;2023-04-21T03:42:34;0.07;;;0.07;;
9836;SDS011;4957;51.412;6.724;2023-04-21T03:45:01;0.07;;;0.07;;
9836;SDS011;4957;51.412;6.724;2023-04-21T03:47:27;0.00;;;0.00;;
9836;SDS011;4957;51.412;6.724;2023-04-21T03:49:53;0.00;;;0.00;;
9836;SDS011;4957;51.412;6.724;2023-04-21T03:52:19;0.00;;;0.00;;
9836;SDS011;4957;51.412;6.724;2023-04-21T03:54:45;0.10;;;0.10;;
9836;SDS011;4957;51.412;6.724;2023-04-21T03:57:10;0.00;;;0.00;;
9836;SDS011;4957;51.412;6.724;2023-04-21T03:59:36;0.40;;;0.40;;
9836;SDS011;4957;51.412;6.724;2023-04-21T04:02:01;0.00;;;0.00;;
9836;SDS011;4957;51.412;6.724;2023-04-21T04:04:27;0.00;;;0.00;;
9836;SDS011;4957;51.412;6.724;2023-04-21T04:06:53;0.00;;;0.00;;
9836;SDS011;4957;51.412;6.724;2023-04-21T04:09:19;0.00;;;0.00;;
9836;SDS011;4957;51.412;6.724;2023-04-21T04:11:44;0.10;;;0.10;;
9836;SDS011;4957;51.412;6.724;2023-04-21T04:14:10;0.00;;;0.00;;
9836;SDS011;4957;51.412;6.724;2023-04-21T04:16:36;0.00;;;0.00;;
9836;SDS011;4957;51.412;6.724;2023-04-21T04:19:01;0.10;;;0.10;;
9836;SDS011;4957;51.412;6.724;2023-04-21T04:21:28;0.10;;;0.10;;
9836;SDS011;4957;51.412;6.724;2023-04-21T04:23:53;0.10;;;0.10;;
9836;SDS011;4957;51.412;6.724;2023-04-21T04:26:19;0.00;;;0.00;;
9836;SDS011;4957;51.412;6.724;2023-04-21T04:28:49;0.10;;;0.10;;
9836;SDS011;4957;51.412;6.724;2023-04-21T04:31:20;0.00;;;0.00;;
9836;SDS011;4957;51.412;6.724;2023-04-21T04:33:49;0.10;;;0.10;;
9836;SDS011;4957;51.412;6.724;2023-04-21T04:36:18;0.83;;;0.83;;
9836;SDS011;4957;51.412;6.724;2023-04-21T04:38:44;0.00;;;0.00;;
9836;SDS011;4957;51.412;6.724;2023-04-21T04:41:10;0.10;;;0.10;;
9836;SDS011;4957;51.412;6.724;2023-04-21T04:43:37;0.00;;;0.00;;
9836;SDS011;4957;51.412;6.724;2023-04-21T04:46:05;0.00;;;0.00;;
9836;SDS011;4957;51.412;6.724;2023-04-21T04:48:33;0.10;;;0.10;;
9836;SDS011;4957;51.412;6.724;2023-04-21T04:50:58;0.07;;;0.07;;
9836;SDS011;4957;51.412;6.724;2023-04-21T04:53:26;1.17;;;0.63;;
9836;SDS011;4957;51.412;6.724;2023-04-21T04:55:52;0.03;;;0.03;;
9836;SDS011;4957;51.412;6.724;2023-04-21T04:58:18;0.07;;;0.07;;
9836;SDS011;4957;51.412;6.724;2023-04-21T05:00:44;0.30;;;0.30;;
9836;SDS011;4957;51.412;6.724;2023-04-21T05:03:10;0.00;;;0.00;;
9836;SDS011;4957;51.412;6.724;2023-04-21T05:05:35;0.10;;;0.10;;
9836;SDS011;4957;51.412;6.724;2023-04-21T05:08:01;0.03;;;0.03;;
9836;SDS011;4957;51.412;6.724;2023-04-21T05:10:27;0.10;;;0.10;;
9836;SDS011;4957;51.412;6.724;2023-04-21T05:12:52;0.00;;;0.00;;
9836;SDS011;4957;51.412;6.724;2023-04-21T05:15:18;0.00;;;0.00;;
9836;SDS011;4957;51.412;6.724;2023-04-21T05:17:44;0.50;;;0.50;;
9836;SDS011;4957;51.412;6.724;2023-04-21T05:20:09;0.00;;;0.00;;
9836;SDS011;4957;51.412;6.724;2023-04-21T05:22:38;0.30;;;0.30;;
9836;SDS011;4957;51.412;6.724;2023-04-21T05:25:05;0.00;;;0.00;;
9836;SDS011;4957;51.412;6.724;2023-04-21T05:27:31;0.00;;;0.00;;
9836;SDS011;4957;51.412;6.724;2023-04-21T05:29:58;0.00;;;0.00;;
9836;SDS011;4957;51.412;6.724;2023-04-21T05:32:24;0.03;;;0.03;;
9836;SDS011;4957;51.412;6.724;2023-04-21T05:34:50;0.10;;;0.10;;
9836;SDS011;4957;51.412;6.724;2023-04-21T05:37:15;0.10;;;0.10;;
9836;SDS011;4957;51.412;6.724;2023-04-21T05:39:41;0.10;;;0.10;;
9836;SDS011;4957;51.412;6.724;2023-04-21T05:42:10;0.20;;;0.20;;
9836;SDS011;4957;51.412;6.724;2023-04-21T05:44:36;0.10;;;0.10;;
9836;SDS011;4957;51.412;6.724;2023-04-21T05:47:05;0.00;;;0.00;;
9836;SDS011;4957;51.412;6.724;2023-04-21T05:49:32;0.00;;;0.00;;
9836;SDS011;4957;51.412;6.724;2023-04-21T05:51:57;0.00;;;0.00;;
9836;SDS011;4957;51.412;6.724;2023-04-21T05:54:23;0.00;;;0.00;;
9836;SDS011;4957;51.412;6.724;2023-04-21T05:56:49;0.00;;;0.00;;
9836;SDS011;4957;51.412;6.724;2023-04-21T05:59:15;0.40;;;0.40;;
9836;SDS011;4957;51.412;6.724;2023-04-21T06:01:41;0.07;;;0.07;;
9836;SDS011;4957;51.412;6.724;2023-04-21T06:04:07;0.00;;;0.00;;
9836;SDS011;4957;51.412;6.724;2023-04-21T06:06:33;0.00;;;0.00;;
9836;SDS011;4957;51.412;6.724;2023-04-21T06:08:59;0.07;;;0.07;;
9836;SDS011;4957;51.412;6.724;2023-04-21T06:11:25;0.10;;;0.10;;
9836;SDS011;4957;51.412;6.724;2023-04-21T06:13:50;0.00;;;0.00;;
9836;SDS011;4957;51.412;6.724;2023-04-21T06:16:22;0.00;;;0.00;;
9836;SDS011;4957;51.412;6.724;2023-04-21T06:18:48;0.00;;;0.00;;
9836;SDS011;4957;51.412;6.724;2023-04-21T06:21:13;0.00;;;0.00;;
9836;SDS011;4957;51.412;6.724;2023-04-21T06:23:39;0.00;;;0.00;;
9836;SDS011;4957;51.412;6.724;2023-04-21T06:26:07;0.00;;;0.00;;
9836;SDS011;4957;51.412;6.724;2023-04-21T06:28:33;0.00;;;0.00;;
9836;SDS011;4957;51.412;6.724;2023-04-21T06:31:00;0.00;;;0.00;;
9836;SDS011;4957;51.412;6.724;2023-04-21T06:33:27;0.63;;;0.63;;
9836;SDS011;4957;51.412;6.724;2023-04-21T06:35:53;0.00;;;0.00;;
9836;SDS011;4957;51.412;6.724;2023-04-21T06:38:19;0.00;;;0.00;;
9836;SDS011;4957;51.412;6.724;2023-04-21T06:40:45;0.00;;;0.00;;
9836;SDS011;4957;51.412;6.724;2023-04-21T06:43:11;0.00;;;0.00;;
9836;SDS011;4957;51.412;6.724;2023-04-21T06:45:36;0.00;;;0.00;;
9836;SDS011;4957;51.412;6.724;2023-04-21T06:48:02;0.00;;;0.00;;
9836;SDS011;4957;51.412;6.724;2023-04-21T06:50:28;0.00;;;0.00;;
9836;SDS011;4957;51.412;6.724;2023-04-21T06:52:53;0.00;;;0.00;;
9836;SDS011;4957;51.412;6.724;2023-04-21T06:55:19;0.00;;;0.00;;
9836;SDS011;4957;51.412;6.724;2023-04-21T06:57:45;0.00;;;0.00;;
9836;SDS011;4957;51.412;6.724;2023-04-21T07:00:11;0.00;;;0.00;;
9836;SDS011;4957;51.412;6.724;2023-04-21T07:02:38;0.00;;;0.00;;
9836;SDS011;4957;51.412;6.724;2023-04-21T07:05:05;0.00;;;0.00;;
9836;SDS011;4957;51.412;6.724;2023-04-21T07:07:32;0.10;;;0.10;;
9836;SDS011;4957;51.412;6.724;2023-04-21T07:09:57;0.00;;;0.00;;
9836;SDS011;4957;51.412;6.724;2023-04-21T07:12:23;0.00;;;0.00;;
9836;SDS011;4957;51.412;6.724;2023-04-21T07:14:49;0.00;;;0.00;;
9836;SDS011;4957;51.412;6.724;2023-04-21T07:17:15;0.00;;;0.00;;
9836;SDS011;4957;51.412;6.724;2023-04-21T07:19:40;0.00;;;0.00;;
9836;SDS011;4957;51.412;6.724;2023-04-21T07:22:06;0.00;;;0.00;;
9836;SDS011;4957;51.412;6.724;2023-04-21T07:24:32;0.00;;;0.00;;
9836;SDS011;4957;51.412;6.724;2023-04-21T07:26:59;0.00;;;0.00;;
9836;SDS011;4957;51.412;6.724;2023-04-21T07:29:26;0.00;;;0.00;;
9836;SDS011;4957;51.412;6.724;2023-04-21T07:31:52;0.00;;;0.00;;
9836;SDS011;4957;51.412;6.724;2023-04-21T07:34:19;0.00;;;0.00;;
9836;SDS011;4957;51.412;6.724;2023-04-21T07:36:44;0.00;;;0.00;;
9836;SDS011;4957;51.412;6.724;2023-04-21T07:39:10;0.00;;;0.00;;
9836;SDS011;4957;51.412;6.724;2023-04-21T07:41:36;0.00;;;0.00;;
9836;SDS011;4957;51.412;6.724;2023-04-21T07:44:01;0.00;;;0.00;;
9836;SDS011;4957;51.412;6.724;2023-04-21T07:46:27;0.00;;;0.00;;
9836;SDS011;4957;51.412;6.724;2023-04-21T07:48:55;0.00;;;0.00;;
9836;SDS011;4957;51.412;6.724;2023-04-21T07:51:22;0.00;;;0.00;;
9836;SDS011;4957;51.412;6.724;2023-04-21T07:53:48;0.00;;;0.00;;
9836;SDS011;4957;51.412;6.724;2023-04-21T07:56:14;0.00;;;0.00;;
9836;SDS011;4957;51.412;6.724;2023-04-21T07:58:40;0.00;;;0.00;;
9836;SDS011;4957;51.412;6.724;2023-04-21T08:01:05;0.00;;;0.00;;
9836;SDS011;4957;51.412;6.724;2023-04-21T08:03:31;0.00;;;0.00;;
9836;SDS011;4957;51.412;6.724;2023-04-21T08:05:57;0.00;;;0.00;;
9836;SDS011;4957;51.412;6.724;2023-04-21T08:08:22;0.00;;;0.00;;
9836;SDS011;4957;51.412;6.724;2023-04-21T08:10:48;0.00;;;0.00;;
9836;SDS011;4957;51.412;6.724;2023-04-21T08:13:14;0.00;;;0.00;;
9836;SDS011;4957;51.412;6.724;2023-04-21T08:15:39;0.00;;;0.00;;
9836;SDS011;4957;51.412;6.724;2023-04-21T08:18:06;0.00;;;0.00;;
9836;SDS011;4957;51.412;6.724;2023-04-21T08:20:32;0.00;;;0.00;;
9836;SDS011;4957;51.412;6.724;2023-04-21T08:22:58;0.00;;;0.00;;
9836;SDS011;4957;51.412;6.724;2023-04-21T08:25:24;0.00;;;0.00;;
9836;SDS011;4957;51.412;6.724;2023-04-21T08:27:50;0.00;;;0.00;;
9836;SDS011;4957;51.412;6.724;2023-04-21T08:30:16;0.00;;;0.00;;
9836;SDS011;4957;51.412;6.724;2023-04-21T08:32:42;0.10;;;0.10;;
9836;SDS011;4957;51.412;6.724;2023-04-21T08:35:08;0.03;;;0.03;;
9836;SDS011;4957;51.412;6.724;2023-04-21T08:37:37;0.00;;;0.00;;
9836;SDS011;4957;51.412;6.724;2023-04-21T08:40:03;0.00;;;0.00;;
9836;SDS011;4957;51.412;6.724;2023-04-21T08:42:30;0.00;;;0.00;;
9836;SDS011;4957;51.412;6.724;2023-04-21T08:44:56;0.00;;;0.00;;
9836;SDS011;4957;51.412;6.724;2023-04-21T08:47:23;0.00;;;0.00;;
9836;SDS011;4957;51.412;6.724;2023-04-21T08:49:49;0.00;;;0.00;;
9836;SDS011;4957;51.412;6.724;2023-04-21T08:52:16;0.00;;;0.00;;
9836;SDS011;4957;51.412;6.724;2023-04-21T08:54:42;0.00;;;0.00;;
9836;SDS011;4957;51.412;6.724;2023-04-21T08:57:08;0.00;;;0.00;;
9836;SDS011;4957;51.412;6.724;2023-04-21T08:59:34;0.00;;;0.00;;
9836;SDS011;4957;51.412;6.724;2023-04-21T09:02:06;0.00;;;0.00;;
9836;SDS011;4957;51.412;6.724;2023-04-21T09:04:39;0.00;;;0.00;;
9836;SDS011;4957;51.412;6.724;2023-04-21T09:07:06;0.00;;;0.00;;
9836;SDS011;4957;51.412;6.724;2023-04-21T09:09:33;0.03;;;0.03;;
9836;SDS011;4957;51.412;6.724;2023-04-21T09:12:15;1.27;;;0.50;;
9836;SDS011;4957;51.412;6.724;2023-04-21T09:14:41;0.00;;;0.00;;
9836;SDS011;4957;51.412;6.724;2023-04-21T09:17:07;0.00;;;0.00;;
9836;SDS011;4957;51.412;6.724;2023-04-21T09:19:33;0.00;;;0.00;;
9836;SDS011;4957;51.412;6.724;2023-04-21T09:21:59;0.00;;;0.00;;
9836;SDS011;4957;51.412;6.724;2023-04-21T09:24:25;0.00;;;0.00;;
9836;SDS011;4957;51.412;6.724;2023-04-21T09:26:51;0.00;;;0.00;;
9836;SDS011;4957;51.412;6.724;2023-04-21T09:29:21;0.10;;;0.10;;
9836;SDS011;4957;51.412;6.724;2023-04-21T09:31:48;0.00;;;0.00;;
9836;SDS011;4957;51.412;6.724;2023-04-21T09:34:20;0.00;;;0.00;;
9836;SDS011;4957;51.412;6.724;2023-04-21T09:36:57;0.00;;;0.00;;
9836;SDS011;4957;51.412;6.724;2023-04-21T09:39:30;0.00;;;0.00;;
9836;SDS011;4957;51.412;6.724;2023-04-21T09:41:57;0.07;;;0.07;;
9836;SDS011;4957;51.412;6.724;2023-04-21T09:44:29;0.00;;;0.00;;
9836;SDS011;4957;51.412;6.724;2023-04-21T09:47:01;0.00;;;0.00;;
9836;SDS011;4957;51.412;6.724;2023-04-21T09:49:29;0.00;;;0.00;;
9836;SDS011;4957;51.412;6.724;2023-04-21T09:51:59;0.00;;;0.00;;
9836;SDS011;4957;51.412;6.724;2023-04-21T09:54:27;0.10;;;0.10;;
9836;SDS011;4957;51.412;6.724;2023-04-21T09:56:57;0.00;;;0.00;;
9836;SDS011;4957;51.412;6.724;2023-04-21T09:59:29;0.00;;;0.00;;
9836;SDS011;4957;51.412;6.724;2023-04-21T10:01:59;0.00;;;0.00;;
9836;SDS011;4957;51.412;6.724;2023-04-21T10:04:27;0.00;;;0.00;;
9836;SDS011;4957;51.412;6.724;2023-04-21T10:06:54;0.00;;;0.00;;
9836;SDS011;4957;51.412;6.724;2023-04-21T10:09:21;0.00;;;0.00;;
9836;SDS011;4957;51.412;6.724;2023-04-21T10:11:50;0.00;;;0.00;;
9836;SDS011;4957;51.412;6.724;2023-04-21T10:14:16;0.00;;;0.00;;
9836;SDS011;4957;51.412;6.724;2023-04-21T10:16:42;0.03;;;0.03;;
9836;SDS011;4957;51.412;6.724;2023-04-21T10:19:24;0.00;;;0.00;;
9836;SDS011;4957;51.412;6.724;2023-04-21T10:21:55;0.00;;;0.00;;
9836;SDS011;4957;51.412;6.724;2023-04-21T10:24:27;0.00;;;0.00;;
9836;SDS011;4957;51.412;6.724;2023-04-21T10:26:55;5.50;;;3.67;;
9836;SDS011;4957;51.412;6.724;2023-04-21T10:29:29;24.67;;;18.20;;
9836;SDS011;4957;51.412;6.724;2023-04-21T10:31:57;17.57;;;15.07;;
9836;SDS011;4957;51.412;6.724;2023-04-21T10:34:35;19.50;;;15.07;;
9836;SDS011;4957;51.412;6.724;2023-04-21T10:39:29;20.93;;;14.67;;
9836;SDS011;4957;51.412;6.724;2023-04-21T10:44:41;20.03;;;15.40;;
9836;SDS011;4957;51.412;6.724;2023-04-21T10:47:07;22.17;;;15.37;;
9836;SDS011;4957;51.412;6.724;2023-04-21T10:49:36;17.20;;;14.60;;
9836;SDS011;4957;51.412;6.724;2023-04-21T10:52:04;18.80;;;13.87;;
9836;SDS011;4957;51.412;6.724;2023-04-21T10:57:01;19.40;;;14.83;;
9836;SDS011;4957;51.412;6.724;2023-04-21T10:59:33;21.33;;;16.53;;
9836;SDS011;4957;51.412;6.724;2023-04-21T11:02:00;21.33;;;14.70;;
9836;SDS011;4957;51.412;6.724;2023-04-21T11:04:29;20.97;;;15.77;;
9836;SDS011;4957;51.412;6.724;2023-04-21T11:07:06;18.73;;;14.63;;
9836;SDS011;4957;51.412;6.724;2023-04-21T11:09:36;20.60;;;14.20;;
9836;SDS011;4957;51.412;6.724;2023-04-21T11:12:04;18.33;;;13.37;;
9836;SDS011;4957;51.412;6.724;2023-04-21T11:14:35;18.57;;;13.23;;
9836;SDS011;4957;51.412;6.724;2023-04-21T11:17:03;19.70;;;14.03;;
9836;SDS011;4957;51.412;6.724;2023-04-21T11:19:32;18.27;;;13.87;;
9836;SDS011;4957;51.412;6.724;2023-04-21T11:21:58;20.90;;;14.47;;
9836;SDS011;4957;51.412;6.724;2023-04-21T11:24:24;26.80;;;15.30;;
9836;SDS011;4957;51.412;6.724;2023-04-21T11:26:50;20.93;;;13.77;;
9836;SDS011;4957;51.412;6.724;2023-04-21T11:29:16;19.37;;;14.30;;
9836;SDS011;4957;51.412;6.724;2023-04-21T11:31:42;22.70;;;14.70;;
9836;SDS011;4957;51.412;6.724;2023-04-21T11:34:11;20.97;;;14.43;;
9836;SDS011;4957;51.412;6.724;2023-04-21T11:36:39;19.07;;;14.33;;
9836;SDS011;4957;51.412;6.724;2023-04-21T11:39:09;21.13;;;15.33;;
9836;SDS011;4957;51.412;6.724;2023-04-21T11:41:39;17.83;;;13.70;;
9836;SDS011;4957;51.412;6.724;2023-04-21T11:44:10;18.93;;;13.50;;
9836;SDS011;4957;51.412;6.724;2023-04-21T11:46:36;20.13;;;14.67;;
9836;SDS011;4957;51.412;6.724;2023-04-21T11:49:11;20.07;;;13.83;;
9836;SDS011;4957;51.412;6.724;2023-04-21T11:51:38;17.93;;;13.33;;
9836;SDS011;4957;51.412;6.724;2023-04-21T11:54:12;19.37;;;15.90;;
9836;SDS011;4957;51.412;6.724;2023-04-21T11:59:08;21.47;;;14.97;;
9836;SDS011;4957;51.412;6.724;2023-04-21T12:01:44;19.43;;;15.30;;
9836;SDS011;4957;51.412;6.724;2023-04-21T12:04:21;22.00;;;15.53;;
9836;SDS011;4957;51.412;6.724;2023-04-21T12:06:58;19.60;;;14.37;;
9836;SDS011;4957;51.412;6.724;2023-04-21T12:09:26;19.13;;;14.20;;
9836;SDS011;4957;51.412;6.724;2023-04-21T12:11:53;17.23;;;13.63;;
9836;SDS011;4957;51.412;6.724;2023-04-21T12:14:21;20.30;;;14.43;;
9836;SDS011;4957;51.412;6.724;2023-04-21T12:16:49;20.23;;;16.33;;
9836;SDS011;4957;51.412;6.724;2023-04-21T12:19:33;23.17;;;15.07;;
9836;SDS011;4957;51.412;6.724;2023-04-21T12:22:00;19.23;;;14.30;;
9836;SDS011;4957;51.412;6.724;2023-04-21T12:24:30;16.90;;;12.63;;
9836;SDS011;4957;51.412;6.724;2023-04-21T12:26:56;20.97;;;13.30;;
9836;SDS011;4957;51.412;6.724;2023-04-21T12:29:22;18.63;;;13.37;;
9836;SDS011;4957;51.412;6.724;2023-04-21T12:31:47;18.47;;;12.87;;
9836;SDS011;4957;51.412;6.724;2023-04-21T12:34:13;17.70;;;13.23;;
9836;SDS011;4957;51.412;6.724;2023-04-21T12:36:39;15.47;;;11.93;;
9836;SDS011;4957;51.412;6.724;2023-04-21T12:39:04;15.27;;;11.90;;
9836;SDS011;4957;51.412;6.724;2023-04-21T12:41:31;15.90;;;12.47;;
9836;SDS011;4957;51.412;6.724;2023-04-21T12:43:58;16.07;;;12.37;;
9836;SDS011;4957;51.412;6.724;2023-04-21T12:46:24;15.70;;;11.97;;
9836;SDS011;4957;51.412;6.724;2023-04-21T12:48:50;13.07;;;11.27;;
9836;SDS011;4957;51.412;6.724;2023-04-21T12:51:16;17.30;;;12.23;;
9836;SDS011;4957;51.412;6.724;2023-04-21T12:53:42;15.43;;;11.33;;
9836;SDS011;4957;51.412;6.724;2023-04-21T12:56:07;14.57;;;12.07;;
9836;SDS011;4957;51.412;6.724;2023-04-21T12:58:33;14.77;;;10.87;;
9836;SDS011;4957;51.412;6.724;2023-04-21T13:00:59;18.00;;;11.30;;
9836;SDS011;4957;51.412;6.724;2023-04-21T13:03:25;13.00;;;10.77;;
9836;SDS011;4957;51.412;6.724;2023-04-21T13:05:51;14.47;;;10.27;;
9836;SDS011;4957;51.412;6.724;2023-04-21T13:08:16;11.23;;;9.97;;
9836;SDS011;4957;51.412;6.724;2023-04-21T13:10:42;11.97;;;9.70;;
9836;SDS011;4957;51.412;6.724;2023-04-21T13:13:09;14.43;;;9.63;;
9836;SDS011;4957;51.412;6.724;2023-04-21T13:15:36;12.40;;;10.03;;
9836;SDS011;4957;51.412;6.724;2023-04-21T13:18:02;14.33;;;10.40;;
9836;SDS011;4957;51.412;6.724;2023-04-21T13:20:28;12.20;;;10.40;;
9836;SDS011;4957;51.412;6.724;2023-04-21T13:22:53;11.33;;;9.23;;
9836;SDS011;4957;51.412;6.724;2023-04-21T13:25:20;14.93;;;9.83;;
9836;SDS011;4957;51.412;6.724;2023-04-21T13:27:45;12.07;;;9.73;;
9836;SDS011;4957;51.412;6.724;2023-04-21T13:30:11;12.33;;;9.53;;
9836;SDS011;4957;51.412;6.724;2023-04-21T13:32:39;10.87;;;9.53;;
9836;SDS011;4957;51.412;6.724;2023-04-21T13:35:06;10.37;;;8.60;;
9836;SDS011;4957;51.412;6.724;2023-04-21T13:37:37;12.07;;;9.80;;
9836;SDS011;4957;51.412;6.724;2023-04-21T13:40:04;11.23;;;9.67;;
9836;SDS011;4957;51.412;6.724;2023-04-21T13:42:32;14.73;;;8.80;;
9836;SDS011;4957;51.412;6.724;2023-04-21T13:44:58;14.13;;;10.80;;
9836;SDS011;4957;51.412;6.724;2023-04-21T13:47:27;12.97;;;9.63;;
9836;SDS011;4957;51.412;6.724;2023-04-21T13:49:57;11.50;;;8.83;;
9836;SDS011;4957;51.412;6.724;2023-04-21T13:52:23;11.83;;;10.03;;
9836;SDS011;4957;51.412;6.724;2023-04-21T13:54:49;12.47;;;9.17;;
9836;SDS011;4957;51.412;6.724;2023-04-21T13:57:16;12.10;;;8.50;;
9836;SDS011;4957;51.412;6.724;2023-04-21T13:59:42;11.20;;;8.43;;
9836;SDS011;4957;51.412;6.724;2023-04-21T14:02:07;9.97;;;8.23;;
9836;SDS011;4957;51.412;6.724;2023-04-21T14:04:33;10.27;;;8.67;;
9836;SDS011;4957;51.412;6.724;2023-04-21T14:07:00;8.97;;;7.90;;
9836;SDS011;4957;51.412;6.724;2023-04-21T14:09:26;11.00;;;8.23;;
9836;SDS011;4957;51.412;6.724;2023-04-21T14:11:52;10.17;;;8.23;;
9836;SDS011;4957;51.412;6.724;2023-04-21T14:14:17;9.97;;;7.73;;
9836;SDS011;4957;51.412;6.724;2023-04-21T14:16:43;10.47;;;8.10;;
9836;SDS011;4957;51.412;6.724;2023-04-21T14:19:13;8.57;;;7.67;;
9836;SDS011;4957;51.412;6.724;2023-04-21T14:21:39;8.30;;;7.43;;
9836;SDS011;4957;51.412;6.724;2023-04-21T14:24:05;8.50;;;7.40;;
9836;SDS011;4957;51.412;6.724;2023-04-21T14:26:31;10.13;;;8.47;;
9836;SDS011;4957;51.412;6.724;2023-04-21T14:28:57;11.97;;;8.57;;
9836;SDS011;4957;51.412;6.724;2023-04-21T14:31:24;11.77;;;8.10;;
9836;SDS011;4957;51.412;6.724;2023-04-21T14:33:50;11.43;;;8.33;;
9836;SDS011;4957;51.412;6.724;2023-04-21T14:36:15;11.47;;;7.40;;
9836;SDS011;4957;51.412;6.724;2023-04-21T14:38:41;11.07;;;8.00;;
9836;SDS011;4957;51.412;6.724;2023-04-21T14:41:07;13.07;;;9.23;;
9836;SDS011;4957;51.412;6.724;2023-04-21T14:43:33;10.50;;;8.43;;
9836;SDS011;4957;51.412;6.724;2023-04-21T14:45:59;12.30;;;8.40;;
9836;SDS011;4957;51.412;6.724;2023-04-21T14:48:24;9.33;;;7.70;;
9836;SDS011;4957;51.412;6.724;2023-04-21T14:50:50;9.17;;;7.77;;
9836;SDS011;4957;51.412;6.724;2023-04-21T14:53:16;9.23;;;7.60;;
9836;SDS011;4957;51.412;6.724;2023-04-21T14:55:42;9.30;;;7.17;;
9836;SDS011;4957;51.412;6.724;2023-04-21T14:58:08;7.90;;;6.83;;
9836;SDS011;4957;51.412;6.724;2023-04-21T15:00:33;8.00;;;6.23;;
9836;SDS011;4957;51.412;6.724;2023-04-21T15:03:00;8.50;;;6.23;;
9836;SDS011;4957;51.412;6.724;2023-04-21T15:05:27;9.50;;;5.87;;
9836;SDS011;4957;51.412;6.724;2023-04-21T15:07:53;6.73;;;5.93;;
9836;SDS011;4957;51.412;6.724;2023-04-21T15:10:18;6.70;;;5.90;;
9836;SDS011;4957;51.412;6.724;2023-04-21T15:12:44;5.80;;;5.20;;
9836;SDS011;4957;51.412;6.724;2023-04-21T15:15:10;5.40;;;4.27;;